createdAt,value
2023-03-02T17:01:46.840Z,93.20
2023-03-02T17:03:19.293Z,66.75
2023-03-02T17:04:51.408Z,78.75
2023-03-02T17:06:23.531Z,71.50
2023-03-02T17:07:57.214Z,85.60
2023-03-02T17:09:29.544Z,103.20
2023-03-02T17:11:04.084Z,106.00
2023-03-02T17:12:36.198Z,102.50
2023-03-02T17:14:10.007Z,120.75
2023-03-02T17:15:45.266Z,138.50
2023-03-02T17:17:18.444Z,139.75
2023-03-02T17:18:50.499Z,143.25
2023-03-02T17:20:22.736Z,138.67
2023-03-02T17:21:57.222Z,161.50
2023-03-02T17:23:29.214Z,135.00
2023-03-02T17:25:03.524Z,163.50
2023-03-02T17:26:36.568Z,161.75
2023-03-02T17:28:09.522Z,164.50
2023-03-02T17:29:41.728Z,169.00
2023-03-02T17:31:13.850Z,168.50
2023-03-02T17:32:45.910Z,163.00
2023-03-02T17:34:17.962Z,180.33
2023-03-02T17:35:50.495Z,212.67
2023-03-02T17:37:22.569Z,210.67
2023-03-02T17:38:54.465Z,194.00
2023-03-02T17:40:26.920Z,194.67
2023-03-02T17:42:03.690Z,177.50
2023-03-02T17:43:36.736Z,169.50
2023-03-02T17:45:09.367Z,156.00
2023-03-02T17:46:43.039Z,152.75
2023-03-02T17:48:15.076Z,150.25
2023-03-02T17:49:47.452Z,155.50
2023-03-02T17:51:19.595Z,165.00
2023-03-02T17:52:51.865Z,165.25
2023-03-02T17:54:23.776Z,149.00
2023-03-02T17:55:55.814Z,169.75
2023-03-02T17:57:28.546Z,174.75
2023-03-02T17:59:02.173Z,173.00
2023-03-02T18:01:26.611Z,180.25
2023-03-02T18:03:27.537Z,188.25
2023-03-02T18:05:11.769Z,178.67
2023-03-02T18:06:54.150Z,191.33
2023-03-02T18:08:51.846Z,187.67
2023-03-02T18:10:53.081Z,207.33
2023-03-02T18:13:02.816Z,213.67
2023-03-02T18:14:38.169Z,224.33
2023-03-02T18:16:11.167Z,214.67
2023-03-02T18:17:43.256Z,218.00
2023-03-02T18:19:15.689Z,226.00
2023-03-02T18:20:48.252Z,232.00
2023-03-02T18:22:22.213Z,222.67
2023-03-02T18:23:54.823Z,213.00
2023-03-02T18:25:28.949Z,224.00
2023-03-02T18:27:04.414Z,457.40
2023-03-02T18:28:36.443Z,457.80
2023-03-02T18:30:11.137Z,335.75
2023-03-02T18:31:43.363Z,322.75
2023-03-02T18:33:15.508Z,303.50
2023-03-02T18:34:47.600Z,289.00
2023-03-02T18:36:19.616Z,280.50
2023-03-02T18:37:51.654Z,273.75
2023-03-02T18:39:23.727Z,268.25
2023-03-02T18:40:58.882Z,257.25
2023-03-02T18:42:35.552Z,262.25
2023-03-02T18:44:07.603Z,239.00
2023-03-02T18:45:40.341Z,237.75
2023-03-02T18:47:14.927Z,234.75
2023-03-02T18:48:47.636Z,240.75
2023-03-02T18:50:19.535Z,578.00
2023-03-02T18:51:51.678Z,386.50
2023-03-02T18:53:23.587Z,336.50
2023-03-02T18:54:57.933Z,297.00
2023-03-02T18:56:30.322Z,286.25
2023-03-02T18:58:02.890Z,278.25
2023-03-02T18:59:35.723Z,273.00
2023-03-02T19:01:08.460Z,265.75
2023-03-02T19:02:40.497Z,249.00
2023-03-02T19:04:13.600Z,244.75
2023-03-02T19:05:45.682Z,241.75
2023-03-02T19:07:18.189Z,228.25
2023-03-02T19:08:50.124Z,268.25
2023-03-02T19:10:22.461Z,320.00
2023-03-02T19:11:54.702Z,297.00
2023-03-02T19:13:27.528Z,308.50
2023-03-02T19:14:59.789Z,284.75
2023-03-02T19:16:33.748Z,285.75
2023-03-02T19:18:05.836Z,266.75
2023-03-02T19:19:38.624Z,256.50
2023-03-02T19:21:10.573Z,253.67
2023-03-02T19:22:42.746Z,239.75
2023-03-02T19:24:14.707Z,237.33
2023-03-02T19:25:46.897Z,235.67
2023-03-02T19:27:18.849Z,305.00
2023-03-02T19:28:50.993Z,261.75
2023-03-02T19:30:24.935Z,233.00
2023-03-02T19:31:59.607Z,233.25
2023-03-02T19:33:36.177Z,243.75
2023-03-02T19:35:09.214Z,233.00
2023-03-02T19:36:41.540Z,244.33
2023-03-02T19:38:13.853Z,235.75
2023-03-02T19:39:45.907Z,233.25
2023-03-02T19:41:20.242Z,249.50
2023-03-02T19:42:52.651Z,233.33
2023-03-02T19:44:28.570Z,232.33
2023-03-02T19:46:00.990Z,280.25
2023-03-02T19:47:33.198Z,269.25
2023-03-02T19:49:05.231Z,249.00
2023-03-02T19:50:37.478Z,227.00
2023-03-02T19:52:09.484Z,234.00
2023-03-02T19:53:41.837Z,229.67
2023-03-02T19:55:14.410Z,241.00
2023-03-02T19:56:53.261Z,227.33
2023-03-02T20:00:23.122Z,230.67
2023-03-02T20:01:55.664Z,219.00
2023-03-02T20:03:33.391Z,221.00
2023-03-02T20:05:06.079Z,198.67
2023-03-02T20:06:39.079Z,218.67
2023-03-02T20:08:12.069Z,218.67
2023-03-02T20:09:44.349Z,216.00
2023-03-02T20:11:16.730Z,277.00
2023-03-02T20:12:49.048Z,238.00
2023-03-02T20:14:33.537Z,225.33
2023-03-02T20:16:06.484Z,214.67
2023-03-02T20:17:38.372Z,193.33
2023-03-02T20:19:12.162Z,198.33
2023-03-02T20:20:48.844Z,198.67
2023-03-02T20:22:20.792Z,206.67
2023-03-02T20:23:53.687Z,197.00
2023-03-02T20:25:26.067Z,202.33
2023-03-02T20:26:59.697Z,209.33
2023-03-02T20:35:44.293Z,199.33
2023-03-02T20:37:46.614Z,191.00
2023-03-02T20:39:24.581Z,201.00
2023-03-02T20:40:57.299Z,233.00
2023-03-02T20:42:54.562Z,193.67
2023-03-02T20:44:31.964Z,181.25
2023-03-02T20:46:08.558Z,178.75
2023-03-02T20:47:41.606Z,192.67
2023-03-02T20:49:15.348Z,196.67
2023-03-02T20:50:47.593Z,188.33
2023-03-02T20:52:20.157Z,186.67
2023-03-02T20:53:53.251Z,194.00
2023-03-02T20:55:28.857Z,184.33
2023-03-02T20:57:01.371Z,180.67
2023-03-02T20:58:33.615Z,175.75
2023-03-02T21:00:07.910Z,187.25
2023-03-02T21:01:39.963Z,187.33
2023-03-02T21:03:12.189Z,175.25
2023-03-02T21:04:46.572Z,184.75
2023-03-02T21:06:18.572Z,168.50
2023-03-02T21:07:50.503Z,165.50
2023-03-02T21:09:22.470Z,171.25
2023-03-02T21:10:54.658Z,163.00
2023-03-02T21:12:30.818Z,161.75
2023-03-02T21:14:02.907Z,167.50
2023-03-02T21:16:00.183Z,164.75
2023-03-02T21:17:32.528Z,160.25
2023-03-02T21:19:34.996Z,143.50
2023-03-02T21:21:10.776Z,146.00
2023-03-02T21:22:42.807Z,159.75
2023-03-02T21:24:18.559Z,165.50
2023-03-02T21:25:50.821Z,168.50
2023-03-02T21:27:22.898Z,168.75
2023-03-02T21:28:55.451Z,171.00
2023-03-02T21:30:35.729Z,168.00
2023-03-02T21:32:08.169Z,151.00
2023-03-02T21:33:40.275Z,167.50
2023-03-02T21:35:18.110Z,160.50
2023-03-02T21:36:53.216Z,164.00
2023-03-02T21:38:25.802Z,154.00
2023-03-02T21:39:59.108Z,181.33
2023-03-02T21:41:56.080Z,300.25
2023-03-02T21:43:56.003Z,219.67
2023-03-02T21:45:31.409Z,222.00
2023-03-02T21:47:31.245Z,218.67
2023-03-02T21:49:03.389Z,196.00
2023-03-02T21:50:36.853Z,200.00
2023-03-02T21:52:08.716Z,189.00
2023-03-02T21:54:06.365Z,197.00
2023-03-02T21:55:43.960Z,181.67
2023-03-02T21:57:20.727Z,182.50
2023-03-02T21:58:54.603Z,175.50
2023-03-02T22:00:34.122Z,172.25
2023-03-02T22:02:07.394Z,187.75
2023-03-02T22:04:03.881Z,191.67
2023-03-02T22:05:36.147Z,178.25
2023-03-02T22:07:08.568Z,191.67
2023-03-02T22:08:40.544Z,177.50
2023-03-02T22:10:45.545Z,176.00
2023-03-02T22:12:17.422Z,180.50
2023-03-02T22:13:50.157Z,182.00
2023-03-02T22:15:22.476Z,181.25
2023-03-02T22:16:54.344Z,179.00
2023-03-02T22:18:29.061Z,165.50
2023-03-02T22:20:25.984Z,166.75
2023-03-02T22:22:00.920Z,140.50
2023-03-02T22:23:33.383Z,163.75
2023-03-02T22:25:15.754Z,164.75
2023-03-02T22:26:54.272Z,146.00
2023-03-02T22:28:30.076Z,154.75
2023-03-02T22:30:02.156Z,149.00
2023-03-02T22:32:01.735Z,153.25
2023-03-02T22:33:36.880Z,148.75
2023-03-02T22:35:26.112Z,135.00
2023-03-02T22:37:03.360Z,132.00
2023-03-02T22:38:35.529Z,150.50
2023-03-02T22:40:34.573Z,149.25
2023-03-02T22:42:09.364Z,154.25
2023-03-02T22:43:41.400Z,148.25
2023-03-02T22:45:15.476Z,148.50
2023-03-02T22:46:47.618Z,140.75
2023-03-02T22:48:21.384Z,150.75
2023-03-02T22:49:59.048Z,140.75
2023-03-02T22:51:31.238Z,132.25
2023-03-02T22:53:03.211Z,146.25
2023-03-02T22:54:42.174Z,132.75
2023-03-02T22:56:21.172Z,142.75
2023-03-02T22:57:53.413Z,165.25
2023-03-02T22:59:27.244Z,148.75
2023-03-02T23:01:00.130Z,126.75
2023-03-02T23:02:32.340Z,139.50
2023-03-02T23:04:20.044Z,134.00
2023-03-02T23:05:53.108Z,149.75
2023-03-02T23:07:25.897Z,146.25
2023-03-02T23:09:04.284Z,159.00
2023-03-02T23:10:36.350Z,142.75
2023-03-02T23:12:23.224Z,136.25
2023-03-02T23:13:55.522Z,117.50
2023-03-02T23:15:37.156Z,142.75
2023-03-02T23:17:37.004Z,144.75
2023-03-02T23:19:08.867Z,142.25
2023-03-02T23:20:40.805Z,146.25
2023-03-02T23:22:12.964Z,127.00
2023-03-02T23:24:13.143Z,137.75
2023-03-02T23:25:53.378Z,145.50
2023-03-02T23:27:52.220Z,123.50
2023-03-02T23:29:30.969Z,126.25
2023-03-02T23:31:06.639Z,135.00
2023-03-02T23:33:04.921Z,116.00
2023-03-02T23:34:43.536Z,120.25
